sensor_id;sensor_type;location;lat;lon;timestamp;temperature;humidity
68387;DHT22;55338;43.062;25.624;2023-04-28T00:02:15;9.00;99.90
68387;DHT22;55338;43.062;25.624;2023-04-28T00:04:41;9.00;99.90
68387;DHT22;55338;43.062;25.624;2023-04-28T00:07:07;9.00;99.90
68387;DHT22;55338;43.062;25.624;2023-04-28T00:09:33;9.00;99.90
68387;DHT22;55338;43.062;25.624;2023-04-28T00:11:58;9.00;99.90
68387;DHT22;55338;43.062;25.624;2023-04-28T00:14:24;9.00;99.90
68387;DHT22;55338;43.062;25.624;2023-04-28T00:16:50;9.10;99.90
68387;DHT22;55338;43.062;25.624;2023-04-28T00:19:16;9.10;99.90
68387;DHT22;55338;43.062;25.624;2023-04-28T00:21:41;9.10;99.90
68387;DHT22;55338;43.062;25.624;2023-04-28T00:24:07;9.00;99.90
68387;DHT22;55338;43.062;25.624;2023-04-28T00:26:33;9.00;99.90
68387;DHT22;55338;43.062;25.624;2023-04-28T00:28:58;9.00;99.90
68387;DHT22;55338;43.062;25.624;2023-04-28T00:31:24;9.00;99.90
68387;DHT22;55338;43.062;25.624;2023-04-28T00:33:50;9.00;99.90
68387;DHT22;55338;43.062;25.624;2023-04-28T00:36:16;9.00;99.90
68387;DHT22;55338;43.062;25.624;2023-04-28T00:38:41;8.90;99.90
68387;DHT22;55338;43.062;25.624;2023-04-28T00:41:09;8.90;99.90
68387;DHT22;55338;43.062;25.624;2023-04-28T00:43:48;8.90;99.90
68387;DHT22;55338;43.062;25.624;2023-04-28T00:48:48;8.90;99.90
68387;DHT22;55338;43.062;25.624;2023-04-28T00:51:15;8.90;99.90
68387;DHT22;55338;43.062;25.624;2023-04-28T00:53:42;8.90;99.90
68387;DHT22;55338;43.062;25.624;2023-04-28T00:56:08;8.90;99.90
68387;DHT22;55338;43.062;25.624;2023-04-28T00:58:34;8.90;99.90
68387;DHT22;55338;43.062;25.624;2023-04-28T01:01:07;8.90;99.90
68387;DHT22;55338;43.062;25.624;2023-04-28T01:03:36;9.00;99.90
68387;DHT22;55338;43.062;25.624;2023-04-28T01:06:07;8.90;99.90
68387;DHT22;55338;43.062;25.624;2023-04-28T01:08:35;8.80;99.90
68387;DHT22;55338;43.062;25.624;2023-04-28T01:11:01;8.80;99.90
68387;DHT22;55338;43.062;25.624;2023-04-28T01:13:27;8.80;99.90
68387;DHT22;55338;43.062;25.624;2023-04-28T01:15:54;8.80;99.90
68387;DHT22;55338;43.062;25.624;2023-04-28T01:18:20;8.90;99.90
68387;DHT22;55338;43.062;25.624;2023-04-28T01:20:46;8.90;99.90
68387;DHT22;55338;43.062;25.624;2023-04-28T01:23:12;8.90;99.90
68387;DHT22;55338;43.062;25.624;2023-04-28T01:25:39;8.90;99.90
68387;DHT22;55338;43.062;25.624;2023-04-28T01:28:05;8.80;99.90
68387;DHT22;55338;43.062;25.624;2023-04-28T01:30:30;8.80;99.90
68387;DHT22;55338;43.062;25.624;2023-04-28T01:32:56;8.70;99.90
68387;DHT22;55338;43.062;25.624;2023-04-28T01:35:22;8.70;99.90
68387;DHT22;55338;43.062;25.624;2023-04-28T01:37:48;8.70;99.90
68387;DHT22;55338;43.062;25.624;2023-04-28T01:40:14;8.70;99.90
68387;DHT22;55338;43.062;25.624;2023-04-28T01:42:40;8.70;99.90
68387;DHT22;55338;43.062;25.624;2023-04-28T01:45:06;8.70;99.90
68387;DHT22;55338;43.062;25.624;2023-04-28T01:47:32;8.70;99.90
68387;DHT22;55338;43.062;25.624;2023-04-28T01:49:58;8.70;99.90
68387;DHT22;55338;43.062;25.624;2023-04-28T01:52:24;8.70;99.90
68387;DHT22;55338;43.062;25.624;2023-04-28T01:54:50;8.70;99.90
68387;DHT22;55338;43.062;25.624;2023-04-28T01:57:15;8.70;99.90
68387;DHT22;55338;43.062;25.624;2023-04-28T01:59:41;8.70;99.90
68387;DHT22;55338;43.062;25.624;2023-04-28T02:02:07;8.70;99.90
68387;DHT22;55338;43.062;25.624;2023-04-28T02:04:33;8.60;99.90
68387;DHT22;55338;43.062;25.624;2023-04-28T02:06:58;8.70;99.90
68387;DHT22;55338;43.062;25.624;2023-04-28T02:09:24;8.70;99.90
68387;DHT22;55338;43.062;25.624;2023-04-28T02:11:50;8.70;99.90
68387;DHT22;55338;43.062;25.624;2023-04-28T02:14:16;8.70;99.90
68387;DHT22;55338;43.062;25.624;2023-04-28T02:16:42;8.70;99.90
68387;DHT22;55338;43.062;25.624;2023-04-28T02:19:07;8.70;99.90
68387;DHT22;55338;43.062;25.624;2023-04-28T02:21:33;8.80;99.90
68387;DHT22;55338;43.062;25.624;2023-04-28T02:23:59;8.70;99.90
68387;DHT22;55338;43.062;25.624;2023-04-28T02:26:24;8.70;99.90
68387;DHT22;55338;43.062;25.624;2023-04-28T02:28:50;8.60;99.90
68387;DHT22;55338;43.062;25.624;2023-04-28T02:31:16;8.60;99.90
68387;DHT22;55338;43.062;25.624;2023-04-28T02:33:42;8.60;99.90
68387;DHT22;55338;43.062;25.624;2023-04-28T02:36:08;8.60;99.90
68387;DHT22;55338;43.062;25.624;2023-04-28T02:38:34;8.60;99.90
68387;DHT22;55338;43.062;25.624;2023-04-28T02:41:03;8.60;99.90
68387;DHT22;55338;43.062;25.624;2023-04-28T02:43:33;8.60;99.90
68387;DHT22;55338;43.062;25.624;2023-04-28T02:45:59;8.60;99.90
68387;DHT22;55338;43.062;25.624;2023-04-28T02:48:25;8.60;99.90
68387;DHT22;55338;43.062;25.624;2023-04-28T02:50:51;8.60;99.90
68387;DHT22;55338;43.062;25.624;2023-04-28T02:53:18;8.60;99.90
68387;DHT22;55338;43.062;25.624;2023-04-28T02:55:44;8.60;99.90
68387;DHT22;55338;43.062;25.624;2023-04-28T02:58:09;8.60;99.90
68387;DHT22;55338;43.062;25.624;2023-04-28T03:00:35;8.70;99.90
68387;DHT22;55338;43.062;25.624;2023-04-28T03:03:01;8.70;99.90
68387;DHT22;55338;43.062;25.624;2023-04-28T03:05:27;8.70;99.90
68387;DHT22;55338;43.062;25.624;2023-04-28T03:07:53;8.70;99.90
68387;DHT22;55338;43.062;25.624;2023-04-28T03:10:19;8.70;99.90
68387;DHT22;55338;43.062;25.624;2023-04-28T03:12:44;8.70;99.90
68387;DHT22;55338;43.062;25.624;2023-04-28T03:15:10;8.70;99.90
68387;DHT22;55338;43.062;25.624;2023-04-28T03:17:36;8.60;99.90
68387;DHT22;55338;43.062;25.624;2023-04-28T03:20:07;8.60;99.90
68387;DHT22;55338;43.062;25.624;2023-04-28T03:22:33;8.60;99.90
68387;DHT22;55338;43.062;25.624;2023-04-28T03:24:59;8.50;99.90
68387;DHT22;55338;43.062;25.624;2023-04-28T03:27:25;8.60;99.90
68387;DHT22;55338;43.062;25.624;2023-04-28T03:29:51;8.50;99.90
68387;DHT22;55338;43.062;25.624;2023-04-28T03:32:16;8.60;99.90
68387;DHT22;55338;43.062;25.624;2023-04-28T03:34:42;8.60;99.90
68387;DHT22;55338;43.062;25.624;2023-04-28T03:37:08;8.50;99.90
68387;DHT22;55338;43.062;25.624;2023-04-28T03:39:34;8.50;99.90
68387;DHT22;55338;43.062;25.624;2023-04-28T03:41:59;8.50;99.90
68387;DHT22;55338;43.062;25.624;2023-04-28T03:44:25;8.50;99.90
68387;DHT22;55338;43.062;25.624;2023-04-28T03:46:51;8.50;99.90
68387;DHT22;55338;43.062;25.624;2023-04-28T03:49:17;8.50;99.90
68387;DHT22;55338;43.062;25.624;2023-04-28T03:51:43;8.50;99.90
68387;DHT22;55338;43.062;25.624;2023-04-28T03:54:08;8.50;99.90
68387;DHT22;55338;43.062;25.624;2023-04-28T03:56:34;8.50;99.90
68387;DHT22;55338;43.062;25.624;2023-04-28T03:59:00;8.60;99.90
68387;DHT22;55338;43.062;25.624;2023-04-28T04:01:26;8.50;99.90
68387;DHT22;55338;43.062;25.624;2023-04-28T04:03:52;8.50;99.90
68387;DHT22;55338;43.062;25.624;2023-04-28T04:06:17;8.60;99.90
68387;DHT22;55338;43.062;25.624;2023-04-28T04:08:44;8.70;99.90
68387;DHT22;55338;43.062;25.624;2023-04-28T04:11:10;8.70;99.90
68387;DHT22;55338;43.062;25.624;2023-04-28T04:13:35;8.80;99.90
68387;DHT22;55338;43.062;25.624;2023-04-28T04:16:01;8.80;99.90
68387;DHT22;55338;43.062;25.624;2023-04-28T04:18:27;8.80;99.90
68387;DHT22;55338;43.062;25.624;2023-04-28T04:20:53;8.80;99.90
68387;DHT22;55338;43.062;25.624;2023-04-28T04:23:20;8.90;99.90
68387;DHT22;55338;43.062;25.624;2023-04-28T04:25:47;8.90;99.90
68387;DHT22;55338;43.062;25.624;2023-04-28T04:28:12;8.90;99.90
68387;DHT22;55338;43.062;25.624;2023-04-28T04:30:38;9.00;99.90
68387;DHT22;55338;43.062;25.624;2023-04-28T04:33:04;9.00;99.90
68387;DHT22;55338;43.062;25.624;2023-04-28T04:35:30;9.10;99.90
68387;DHT22;55338;43.062;25.624;2023-04-28T04:37:56;9.10;99.90
68387;DHT22;55338;43.062;25.624;2023-04-28T04:40:22;9.20;99.90
68387;DHT22;55338;43.062;25.624;2023-04-28T04:42:47;9.20;99.90
68387;DHT22;55338;43.062;25.624;2023-04-28T04:45:13;9.10;99.90
68387;DHT22;55338;43.062;25.624;2023-04-28T04:47:40;9.20;99.90
68387;DHT22;55338;43.062;25.624;2023-04-28T04:50:07;9.20;99.90
68387;DHT22;55338;43.062;25.624;2023-04-28T04:52:32;9.30;99.90
68387;DHT22;55338;43.062;25.624;2023-04-28T04:54:58;9.30;99.90
68387;DHT22;55338;43.062;25.624;2023-04-28T04:57:24;9.30;99.90
68387;DHT22;55338;43.062;25.624;2023-04-28T04:59:50;9.40;99.90
68387;DHT22;55338;43.062;25.624;2023-04-28T05:02:16;9.40;99.90
68387;DHT22;55338;43.062;25.624;2023-04-28T05:04:42;9.40;99.90
68387;DHT22;55338;43.062;25.624;2023-04-28T05:07:08;9.40;99.90
68387;DHT22;55338;43.062;25.624;2023-04-28T05:09:33;9.50;99.90
68387;DHT22;55338;43.062;25.624;2023-04-28T05:11:59;9.50;99.90
68387;DHT22;55338;43.062;25.624;2023-04-28T05:14:25;9.60;99.90
68387;DHT22;55338;43.062;25.624;2023-04-28T05:16:51;9.70;99.90
68387;DHT22;55338;43.062;25.624;2023-04-28T05:19:17;9.80;99.90
68387;DHT22;55338;43.062;25.624;2023-04-28T05:21:42;9.80;99.90
68387;DHT22;55338;43.062;25.624;2023-04-28T05:24:08;9.90;99.90
68387;DHT22;55338;43.062;25.624;2023-04-28T05:26:35;10.00;99.90
68387;DHT22;55338;43.062;25.624;2023-04-28T05:29:00;10.20;99.90
68387;DHT22;55338;43.062;25.624;2023-04-28T05:31:26;10.30;99.90
68387;DHT22;55338;43.062;25.624;2023-04-28T05:33:52;10.40;99.90
68387;DHT22;55338;43.062;25.624;2023-04-28T05:36:18;10.50;99.90
68387;DHT22;55338;43.062;25.624;2023-04-28T05:38:43;10.60;99.90
68387;DHT22;55338;43.062;25.624;2023-04-28T05:41:09;10.80;99.90
68387;DHT22;55338;43.062;25.624;2023-04-28T05:43:35;11.00;99.90
68387;DHT22;55338;43.062;25.624;2023-04-28T05:46:01;11.30;99.90
68387;DHT22;55338;43.062;25.624;2023-04-28T05:48:27;11.50;99.90
68387;DHT22;55338;43.062;25.624;2023-04-28T05:50:53;11.70;99.90
68387;DHT22;55338;43.062;25.624;2023-04-28T05:53:19;11.80;99.90
68387;DHT22;55338;43.062;25.624;2023-04-28T05:55:44;11.90;99.90
68387;DHT22;55338;43.062;25.624;2023-04-28T05:58:10;12.10;99.90
68387;DHT22;55338;43.062;25.624;2023-04-28T06:00:36;12.20;99.90
68387;DHT22;55338;43.062;25.624;2023-04-28T06:03:02;12.30;99.90
68387;DHT22;55338;43.062;25.624;2023-04-28T06:05:27;12.50;99.90
68387;DHT22;55338;43.062;25.624;2023-04-28T06:07:54;12.60;99.90
68387;DHT22;55338;43.062;25.624;2023-04-28T06:10:24;12.60;99.90
68387;DHT22;55338;43.062;25.624;2023-04-28T06:12:50;12.70;99.10
68387;DHT22;55338;43.062;25.624;2023-04-28T06:15:16;12.80;97.10
68387;DHT22;55338;43.062;25.624;2023-04-28T06:17:42;13.00;96.60
68387;DHT22;55338;43.062;25.624;2023-04-28T06:20:08;13.30;99.10
68387;DHT22;55338;43.062;25.624;2023-04-28T06:22:35;13.60;87.00
68387;DHT22;55338;43.062;25.624;2023-04-28T06:25:01;14.10;85.60
68387;DHT22;55338;43.062;25.624;2023-04-28T06:27:27;14.30;81.60
68387;DHT22;55338;43.062;25.624;2023-04-28T06:29:57;14.30;82.50
68387;DHT22;55338;43.062;25.624;2023-04-28T06:32:23;14.90;74.70
68387;DHT22;55338;43.062;25.624;2023-04-28T06:34:49;15.50;74.50
68387;DHT22;55338;43.062;25.624;2023-04-28T06:37:15;15.90;72.50
68387;DHT22;55338;43.062;25.624;2023-04-28T06:39:41;16.20;69.80
68387;DHT22;55338;43.062;25.624;2023-04-28T06:42:07;16.30;68.90
68387;DHT22;55338;43.062;25.624;2023-04-28T06:44:33;16.60;69.10
68387;DHT22;55338;43.062;25.624;2023-04-28T06:46:59;16.20;58.90
68387;DHT22;55338;43.062;25.624;2023-04-28T06:49:25;16.60;60.20
68387;DHT22;55338;43.062;25.624;2023-04-28T06:51:51;16.60;59.40
68387;DHT22;55338;43.062;25.624;2023-04-28T06:54:16;16.50;57.50
68387;DHT22;55338;43.062;25.624;2023-04-28T06:56:43;16.60;56.20
68387;DHT22;55338;43.062;25.624;2023-04-28T06:59:08;16.70;57.00
68387;DHT22;55338;43.062;25.624;2023-04-28T07:01:34;16.50;58.10
68387;DHT22;55338;43.062;25.624;2023-04-28T07:04:00;16.40;55.40
68387;DHT22;55338;43.062;25.624;2023-04-28T07:06:26;17.10;55.60
68387;DHT22;55338;43.062;25.624;2023-04-28T07:08:53;17.30;52.00
68387;DHT22;55338;43.062;25.624;2023-04-28T07:11:19;17.20;53.00
68387;DHT22;55338;43.062;25.624;2023-04-28T07:13:44;17.10;51.50
68387;DHT22;55338;43.062;25.624;2023-04-28T07:16:15;18.00;49.40
68387;DHT22;55338;43.062;25.624;2023-04-28T07:18:40;18.40;49.80
68387;DHT22;55338;43.062;25.624;2023-04-28T07:21:06;19.00;50.10
68387;DHT22;55338;43.062;25.624;2023-04-28T07:23:32;19.30;46.70
68387;DHT22;55338;43.062;25.624;2023-04-28T07:25:58;19.60;44.70
68387;DHT22;55338;43.062;25.624;2023-04-28T07:28:24;19.10;43.90
68387;DHT22;55338;43.062;25.624;2023-04-28T07:30:50;18.60;43.50
68387;DHT22;55338;43.062;25.624;2023-04-28T07:33:15;17.60;42.20
68387;DHT22;55338;43.062;25.624;2023-04-28T07:35:41;17.30;43.80
68387;DHT22;55338;43.062;25.624;2023-04-28T07:38:07;17.00;44.70
68387;DHT22;55338;43.062;25.624;2023-04-28T07:40:33;17.70;46.70
68387;DHT22;55338;43.062;25.624;2023-04-28T07:42:59;18.30;44.30
68387;DHT22;55338;43.062;25.624;2023-04-28T07:45:25;18.40;43.50
68387;DHT22;55338;43.062;25.624;2023-04-28T07:47:50;18.70;45.80
68387;DHT22;55338;43.062;25.624;2023-04-28T07:50:16;18.80;41.60
68387;DHT22;55338;43.062;25.624;2023-04-28T07:52:42;18.90;42.10
68387;DHT22;55338;43.062;25.624;2023-04-28T07:55:09;18.60;41.70
68387;DHT22;55338;43.062;25.624;2023-04-28T07:57:35;18.90;42.80
68387;DHT22;55338;43.062;25.624;2023-04-28T08:00:01;18.80;43.30
68387;DHT22;55338;43.062;25.624;2023-04-28T08:02:27;19.10;43.30
68387;DHT22;55338;43.062;25.624;2023-04-28T08:04:53;19.10;41.30
68387;DHT22;55338;43.062;25.624;2023-04-28T08:07:19;19.10;41.70
68387;DHT22;55338;43.062;25.624;2023-04-28T08:09:45;19.10;44.60
68387;DHT22;55338;43.062;25.624;2023-04-28T08:12:13;18.50;44.40
68387;DHT22;55338;43.062;25.624;2023-04-28T08:14:40;17.90;42.70
68387;DHT22;55338;43.062;25.624;2023-04-28T08:17:05;17.40;46.10
68387;DHT22;55338;43.062;25.624;2023-04-28T08:19:31;17.10;48.90
68387;DHT22;55338;43.062;25.624;2023-04-28T08:21:58;16.70;46.80
68387;DHT22;55338;43.062;25.624;2023-04-28T08:24:24;16.90;47.70
68387;DHT22;55338;43.062;25.624;2023-04-28T08:26:50;18.00;45.80
68387;DHT22;55338;43.062;25.624;2023-04-28T08:29:16;18.60;43.50
68387;DHT22;55338;43.062;25.624;2023-04-28T08:31:42;18.30;44.20
68387;DHT22;55338;43.062;25.624;2023-04-28T08:34:08;17.90;43.70
68387;DHT22;55338;43.062;25.624;2023-04-28T08:36:33;17.90;45.30
68387;DHT22;55338;43.062;25.624;2023-04-28T08:39:00;19.00;45.50
68387;DHT22;55338;43.062;25.624;2023-04-28T08:41:33;19.40;43.00
68387;DHT22;55338;43.062;25.624;2023-04-28T08:44:08;20.20;39.10
68387;DHT22;55338;43.062;25.624;2023-04-28T08:46:35;20.70;38.50
68387;DHT22;55338;43.062;25.624;2023-04-28T08:49:05;20.00;42.40
68387;DHT22;55338;43.062;25.624;2023-04-28T08:51:34;20.10;41.10
68387;DHT22;55338;43.062;25.624;2023-04-28T08:54:03;21.10;40.20
68387;DHT22;55338;43.062;25.624;2023-04-28T08:56:31;22.00;38.90
68387;DHT22;55338;43.062;25.624;2023-04-28T08:59:02;21.70;39.30
68387;DHT22;55338;43.062;25.624;2023-04-28T09:01:31;21.50;36.10
68387;DHT22;55338;43.062;25.624;2023-04-28T09:03:59;22.00;38.30
68387;DHT22;55338;43.062;25.624;2023-04-28T09:06:25;21.60;37.40
68387;DHT22;55338;43.062;25.624;2023-04-28T09:08:52;21.00;41.70
68387;DHT22;55338;43.062;25.624;2023-04-28T09:11:18;20.10;41.50
68387;DHT22;55338;43.062;25.624;2023-04-28T09:13:45;19.90;44.40
68387;DHT22;55338;43.062;25.624;2023-04-28T09:16:11;19.80;43.00
68387;DHT22;55338;43.062;25.624;2023-04-28T09:18:37;19.30;44.40
68387;DHT22;55338;43.062;25.624;2023-04-28T09:21:07;19.00;42.30
68387;DHT22;55338;43.062;25.624;2023-04-28T09:23:35;18.80;45.60
68387;DHT22;55338;43.062;25.624;2023-04-28T09:26:10;18.70;42.60
68387;DHT22;55338;43.062;25.624;2023-04-28T09:28:36;18.50;44.10
68387;DHT22;55338;43.062;25.624;2023-04-28T09:31:02;18.20;44.90
68387;DHT22;55338;43.062;25.624;2023-04-28T09:33:28;18.90;42.10
68387;DHT22;55338;43.062;25.624;2023-04-28T09:35:54;19.40;41.20
68387;DHT22;55338;43.062;25.624;2023-04-28T09:38:21;19.50;42.90
68387;DHT22;55338;43.062;25.624;2023-04-28T09:43:37;21.70;39.40
68387;DHT22;55338;43.062;25.624;2023-04-28T09:46:06;22.00;38.20
68387;DHT22;55338;43.062;25.624;2023-04-28T09:48:36;21.20;38.70
68387;DHT22;55338;43.062;25.624;2023-04-28T09:51:06;20.70;37.50
68387;DHT22;55338;43.062;25.624;2023-04-28T09:53:32;20.20;40.90
68387;DHT22;55338;43.062;25.624;2023-04-28T09:56:02;20.00;40.20
68387;DHT22;55338;43.062;25.624;2023-04-28T09:58:30;21.00;40.00
68387;DHT22;55338;43.062;25.624;2023-04-28T10:00:59;21.50;38.30
68387;DHT22;55338;43.062;25.624;2023-04-28T10:03:29;20.90;39.70
68387;DHT22;55338;43.062;25.624;2023-04-28T10:05:56;21.10;45.00
68387;DHT22;55338;43.062;25.624;2023-04-28T10:08:23;21.50;38.00
68387;DHT22;55338;43.062;25.624;2023-04-28T10:10:51;20.30;39.00
68387;DHT22;55338;43.062;25.624;2023-04-28T10:13:20;20.50;42.60
68387;DHT22;55338;43.062;25.624;2023-04-28T10:15:47;21.60;37.50
68387;DHT22;55338;43.062;25.624;2023-04-28T10:18:18;22.70;39.40
68387;DHT22;55338;43.062;25.624;2023-04-28T10:20:48;23.20;35.30
68387;DHT22;55338;43.062;25.624;2023-04-28T10:26:11;24.00;34.50
68387;DHT22;55338;43.062;25.624;2023-04-28T10:28:48;24.80;30.90
68387;DHT22;55338;43.062;25.624;2023-04-28T10:31:20;25.10;33.10
68387;DHT22;55338;43.062;25.624;2023-04-28T10:33:47;24.60;31.50
68387;DHT22;55338;43.062;25.624;2023-04-28T10:36:48;24.10;34.40
68387;DHT22;55338;43.062;25.624;2023-04-28T10:39:17;23.30;34.90
68387;DHT22;55338;43.062;25.624;2023-04-28T10:41:45;22.00;33.50
68387;DHT22;55338;43.062;25.624;2023-04-28T10:46:59;20.60;37.50
68387;DHT22;55338;43.062;25.624;2023-04-28T10:55:34;22.00;33.30
68387;DHT22;55338;43.062;25.624;2023-04-28T11:00:48;21.70;38.60
68387;DHT22;55338;43.062;25.624;2023-04-28T11:12:07;21.90;34.80
68387;DHT22;55338;43.062;25.624;2023-04-28T11:14:36;21.10;36.20
68387;DHT22;55338;43.062;25.624;2023-04-28T11:22:04;20.30;38.50
68387;DHT22;55338;43.062;25.624;2023-04-28T11:24:36;20.90;38.30
68387;DHT22;55338;43.062;25.624;2023-04-28T11:27:02;21.10;37.80
68387;DHT22;55338;43.062;25.624;2023-04-28T11:29:38;21.30;36.30
68387;DHT22;55338;43.062;25.624;2023-04-28T11:32:06;21.50;35.10
68387;DHT22;55338;43.062;25.624;2023-04-28T11:34:33;21.60;33.40
68387;DHT22;55338;43.062;25.624;2023-04-28T11:36:59;21.30;37.50
68387;DHT22;55338;43.062;25.624;2023-04-28T11:39:30;21.50;35.10
68387;DHT22;55338;43.062;25.624;2023-04-28T11:41:57;20.50;38.80
68387;DHT22;55338;43.062;25.624;2023-04-28T11:44:29;19.70;40.80
68387;DHT22;55338;43.062;25.624;2023-04-28T11:46:59;20.00;39.40
68387;DHT22;55338;43.062;25.624;2023-04-28T11:49:26;19.90;39.50
68387;DHT22;55338;43.062;25.624;2023-04-28T11:51:54;20.00;42.40
68387;DHT22;55338;43.062;25.624;2023-04-28T11:54:24;19.80;39.30
68387;DHT22;55338;43.062;25.624;2023-04-28T11:56:51;19.90;38.80
68387;DHT22;55338;43.062;25.624;2023-04-28T11:59:17;19.90;41.10
68387;DHT22;55338;43.062;25.624;2023-04-28T12:01:51;19.70;41.80
68387;DHT22;55338;43.062;25.624;2023-04-28T12:04:40;19.40;42.50
68387;DHT22;55338;43.062;25.624;2023-04-28T12:07:13;18.90;42.20
68387;DHT22;55338;43.062;25.624;2023-04-28T12:12:11;18.80;43.50
68387;DHT22;55338;43.062;25.624;2023-04-28T12:15:01;18.30;42.20
68387;DHT22;55338;43.062;25.624;2023-04-28T12:17:31;18.20;43.40
68387;DHT22;55338;43.062;25.624;2023-04-28T12:19:59;18.10;41.60
68387;DHT22;55338;43.062;25.624;2023-04-28T12:22:25;18.80;42.30
68387;DHT22;55338;43.062;25.624;2023-04-28T12:25:11;18.90;42.20
68387;DHT22;55338;43.062;25.624;2023-04-28T12:27:38;18.80;44.50
68387;DHT22;55338;43.062;25.624;2023-04-28T12:32:46;19.00;41.60
68387;DHT22;55338;43.062;25.624;2023-04-28T12:35:12;18.80;42.70
68387;DHT22;55338;43.062;25.624;2023-04-28T12:37:38;19.60;45.20
68387;DHT22;55338;43.062;25.624;2023-04-28T12:40:07;20.40;41.80
68387;DHT22;55338;43.062;25.624;2023-04-28T12:42:33;20.30;39.10
68387;DHT22;55338;43.062;25.624;2023-04-28T12:44:59;20.40;40.80
68387;DHT22;55338;43.062;25.624;2023-04-28T12:47:25;20.80;40.40
68387;DHT22;55338;43.062;25.624;2023-04-28T12:49:51;20.50;37.80
68387;DHT22;55338;43.062;25.624;2023-04-28T12:52:21;20.60;39.40
68387;DHT22;55338;43.062;25.624;2023-04-28T12:54:47;20.50;38.80
68387;DHT22;55338;43.062;25.624;2023-04-28T12:57:17;20.30;38.80
68387;DHT22;55338;43.062;25.624;2023-04-28T12:59:44;20.10;39.80
68387;DHT22;55338;43.062;25.624;2023-04-28T13:02:12;20.40;38.90
68387;DHT22;55338;43.062;25.624;2023-04-28T13:04:41;20.80;42.90
68387;DHT22;55338;43.062;25.624;2023-04-28T13:07:07;21.00;38.90
68387;DHT22;55338;43.062;25.624;2023-04-28T13:09:33;20.90;41.50
68387;DHT22;55338;43.062;25.624;2023-04-28T13:11:59;21.60;37.50
68387;DHT22;55338;43.062;25.624;2023-04-28T13:14:27;21.50;35.80
68387;DHT22;55338;43.062;25.624;2023-04-28T13:16:53;21.20;38.20
68387;DHT22;55338;43.062;25.624;2023-04-28T13:19:19;21.20;38.50
68387;DHT22;55338;43.062;25.624;2023-04-28T13:21:45;21.70;36.70
68387;DHT22;55338;43.062;25.624;2023-04-28T13:24:14;22.10;35.80
68387;DHT22;55338;43.062;25.624;2023-04-28T13:26:40;21.90;35.30
68387;DHT22;55338;43.062;25.624;2023-04-28T13:29:08;22.40;37.50
68387;DHT22;55338;43.062;25.624;2023-04-28T13:31:35;23.00;36.40
68387;DHT22;55338;43.062;25.624;2023-04-28T13:34:00;22.80;34.40
68387;DHT22;55338;43.062;25.624;2023-04-28T13:36:30;22.30;35.30
68387;DHT22;55338;43.062;25.624;2023-04-28T13:38:56;21.80;38.20
68387;DHT22;55338;43.062;25.624;2023-04-28T13:41:22;21.60;39.90
68387;DHT22;55338;43.062;25.624;2023-04-28T13:43:48;21.30;38.20
68387;DHT22;55338;43.062;25.624;2023-04-28T13:46:14;21.80;37.40
68387;DHT22;55338;43.062;25.624;2023-04-28T13:48:40;22.00;38.30
68387;DHT22;55338;43.062;25.624;2023-04-28T13:51:06;21.30;38.50
68387;DHT22;55338;43.062;25.624;2023-04-28T13:53:33;20.70;37.90
68387;DHT22;55338;43.062;25.624;2023-04-28T13:55:59;20.50;42.30
68387;DHT22;55338;43.062;25.624;2023-04-28T13:58:27;20.70;40.90
68387;DHT22;55338;43.062;25.624;2023-04-28T14:00:53;20.30;38.50
68387;DHT22;55338;43.062;25.624;2023-04-28T14:03:20;20.00;40.70
68387;DHT22;55338;43.062;25.624;2023-04-28T14:05:54;20.20;42.70
68387;DHT22;55338;43.062;25.624;2023-04-28T14:08:21;20.60;38.90
68387;DHT22;55338;43.062;25.624;2023-04-28T14:10:48;20.40;40.80
68387;DHT22;55338;43.062;25.624;2023-04-28T14:13:14;19.60;39.10
68387;DHT22;55338;43.062;25.624;2023-04-28T14:15:40;19.40;41.40
68387;DHT22;55338;43.062;25.624;2023-04-28T14:18:06;19.30;43.20
68387;DHT22;55338;43.062;25.624;2023-04-28T14:20:33;19.50;42.30
68387;DHT22;55338;43.062;25.624;2023-04-28T14:22:59;19.90;39.80
68387;DHT22;55338;43.062;25.624;2023-04-28T14:25:25;20.10;39.50
68387;DHT22;55338;43.062;25.624;2023-04-28T14:27:51;20.00;40.70
68387;DHT22;55338;43.062;25.624;2023-04-28T14:30:18;19.70;42.10
68387;DHT22;55338;43.062;25.624;2023-04-28T14:32:44;19.30;42.10
68387;DHT22;55338;43.062;25.624;2023-04-28T14:35:11;19.00;42.00
68387;DHT22;55338;43.062;25.624;2023-04-28T14:37:40;18.90;42.80
68387;DHT22;55338;43.062;25.624;2023-04-28T14:40:08;18.80;42.40
68387;DHT22;55338;43.062;25.624;2023-04-28T14:42:35;18.80;42.90
68387;DHT22;55338;43.062;25.624;2023-04-28T14:45:02;18.40;43.30
68387;DHT22;55338;43.062;25.624;2023-04-28T14:47:29;18.00;44.60
68387;DHT22;55338;43.062;25.624;2023-04-28T14:49:56;17.80;44.00
68387;DHT22;55338;43.062;25.624;2023-04-28T14:52:23;17.50;45.80
68387;DHT22;55338;43.062;25.624;2023-04-28T14:54:52;17.40;45.30
68387;DHT22;55338;43.062;25.624;2023-04-28T14:57:18;17.40;44.10
68387;DHT22;55338;43.062;25.624;2023-04-28T14:59:45;17.30;47.20
68387;DHT22;55338;43.062;25.624;2023-04-28T15:02:11;17.30;45.90
68387;DHT22;55338;43.062;25.624;2023-04-28T15:04:38;17.30;45.70
68387;DHT22;55338;43.062;25.624;2023-04-28T15:07:04;17.20;46.10
68387;DHT22;55338;43.062;25.624;2023-04-28T15:09:32;17.00;47.50
68387;DHT22;55338;43.062;25.624;2023-04-28T15:11:58;16.90;47.20
68387;DHT22;55338;43.062;25.624;2023-04-28T15:14:24;16.60;46.40
68387;DHT22;55338;43.062;25.624;2023-04-28T15:16:50;16.70;48.90
68387;DHT22;55338;43.062;25.624;2023-04-28T15:19:15;16.80;47.90
68387;DHT22;55338;43.062;25.624;2023-04-28T15:21:41;16.80;47.20
68387;DHT22;55338;43.062;25.624;2023-04-28T15:24:07;16.70;48.10
68387;DHT22;55338;43.062;25.624;2023-04-28T15:26:33;16.60;48.70
68387;DHT22;55338;43.062;25.624;2023-04-28T15:29:00;16.60;48.80
68387;DHT22;55338;43.062;25.624;2023-04-28T15:31:26;16.50;50.20
68387;DHT22;55338;43.062;25.624;2023-04-28T15:33:53;16.20;48.80
68387;DHT22;55338;43.062;25.624;2023-04-28T15:36:18;16.10;49.50
68387;DHT22;55338;43.062;25.624;2023-04-28T15:38:48;16.00;49.50
68387;DHT22;55338;43.062;25.624;2023-04-28T15:41:14;15.90;51.00
68387;DHT22;55338;43.062;25.624;2023-04-28T15:43:40;15.80;52.10
68387;DHT22;55338;43.062;25.624;2023-04-28T15:46:07;15.80;50.30
68387;DHT22;55338;43.062;25.624;2023-04-28T15:48:36;15.60;51.20
68387;DHT22;55338;43.062;25.624;2023-04-28T15:51:06;15.60;51.40
68387;DHT22;55338;43.062;25.624;2023-04-28T15:53:32;15.60;52.10
68387;DHT22;55338;43.062;25.624;2023-04-28T15:55:58;15.60;52.10
68387;DHT22;55338;43.062;25.624;2023-04-28T15:58:24;15.70;51.70